Time;durP1;ratioP1;P1;durP2;ratioP2;P2;SDS_P1;SDS_P2;PMS_P1;PMS_P2;Temp;Humidity;BMP_temperature;BMP_pressure;BME280_temperature;BME280_humidity;BME280_pressure;Samples;Min_cycle;Max_cycle;Signal;HPM_P1;HPM_P2
2022/04/24 04:00:12;;;;;;;3.13;2.92;;;7.30;99.90;;;;;;5998986;23;20509;31
2022/04/24 04:02:47;;;;;;;4.22;3.22;;;7.30;99.90;;;;;;4933667;29;20218;-70
2022/04/24 04:05:16;;;;;;;3.90;3.25;;;7.30;99.90;;;;;;4935610;29;20269;-70
2022/04/24 04:07:43;;;;;;;3.40;3.20;;;7.30;99.90;;;;;;4936230;29;20610;-69
2022/04/24 04:10:10;;;;;;;3.50;3.20;;;7.30;99.90;;;;;;4934266;29;20213;-69
2022/04/24 04:12:36;;;;;;;3.75;2.75;;;7.30;99.90;;;;;;4934499;29;20202;-70
2022/04/24 04:15:03;;;;;;;3.70;3.38;;;7.30;99.90;;;;;;4934190;29;20285;-70
2022/04/24 04:17:30;;;;;;;3.38;3.10;;;7.30;99.90;;;;;;4934186;29;20284;-70
2022/04/24 04:19:58;;;;;;;3.40;3.20;;;7.30;99.90;;;;;;4934141;29;20206;-69
2022/04/24 04:22:25;;;;;;;4.43;2.70;;;7.30;99.90;;;;;;4934164;29;20722;-70
2022/04/24 04:24:52;;;;;;;3.28;3.10;;;7.30;99.90;;;;;;4934589;29;20220;-70
2022/04/24 04:27:19;;;;;;;3.22;2.28;;;7.30;99.90;;;;;;4934629;29;20214;-69
2022/04/24 04:29:46;;;;;;;2.50;2.40;;;7.30;99.90;;;;;;4933672;29;20528;-70
2022/04/24 04:32:12;;;;;;;3.78;3.50;;;7.30;99.90;;;;;;4933671;29;20289;-70
2022/04/24 04:34:39;;;;;;;3.00;2.80;;;7.30;99.90;;;;;;4934396;29;20585;-69
2022/04/24 04:37:07;;;;;;;4.15;3.80;;;7.30;99.90;;;;;;4934042;29;20269;-70
2022/04/24 04:39:33;;;;;;;3.20;2.83;;;7.20;99.90;;;;;;4933707;29;20264;-69
2022/04/24 04:42:00;;;;;;;3.90;3.60;;;7.20;99.90;;;;;;4934066;29;20229;-70
2022/04/24 04:44:27;;;;;;;3.08;2.95;;;7.20;99.90;;;;;;4934470;29;20221;-70
2022/04/24 04:46:53;;;;;;;4.32;3.45;;;7.30;99.90;;;;;;4933195;29;20210;-70
2022/04/24 04:49:20;;;;;;;3.28;3.08;;;7.60;99.90;;;;;;4934382;29;20269;-69
2022/04/24 04:51:47;;;;;;;2.30;2.10;;;7.90;99.90;;;;;;4933460;29;20316;-69
2022/04/24 04:54:14;;;;;;;3.13;2.95;;;8.10;99.90;;;;;;4933856;29;20304;-70
2022/04/24 04:56:41;;;;;;;4.30;4.00;;;8.30;99.90;;;;;;4934179;29;20675;-70
2022/04/24 04:59:08;;;;;;;3.30;3.20;;;8.40;99.90;;;;;;4934102;29;20209;-71
2022/04/24 05:01:34;;;;;;;3.47;3.25;;;8.50;99.90;;;;;;4932254;29;20304;-70
2022/04/24 05:04:01;;;;;;;3.25;3.00;;;8.50;99.90;;;;;;4928557;29;20225;-69
2022/04/24 05:06:27;;;;;;;3.03;2.80;;;8.30;99.90;;;;;;4933650;29;20206;-69
2022/04/24 05:08:54;;;;;;;4.53;4.07;;;8.10;99.90;;;;;;4934095;29;20218;-70
2022/04/24 05:11:22;;;;;;;3.95;3.40;;;8.00;99.90;;;;;;4933173;29;20653;-70
2022/04/24 05:13:48;;;;;;;3.60;3.40;;;7.90;99.90;;;;;;4933872;29;20210;-70
2022/04/24 05:16:15;;;;;;;4.80;3.83;;;8.00;99.90;;;;;;4933020;29;20323;-70
2022/04/24 05:18:42;;;;;;;4.75;3.92;;;8.00;99.90;;;;;;4933833;29;20278;-70
2022/04/24 05:21:08;;;;;;;5.20;3.60;;;7.90;99.90;;;;;;4932724;29;20225;-70
2022/04/24 05:23:35;;;;;;;3.90;3.50;;;7.70;99.90;;;;;;4933963;29;20714;-70
2022/04/24 05:26:01;;;;;;;4.28;3.90;;;7.70;99.90;;;;;;4933379;29;20268;-70
2022/04/24 05:28:29;;;;;;;4.90;4.00;;;7.70;99.90;;;;;;4933630;29;20755;-70
2022/04/24 05:30:56;;;;;;;5.80;4.40;;;7.70;99.90;;;;;;4932137;29;20274;-69
2022/04/24 05:33:23;;;;;;;3.75;3.55;;;7.70;99.90;;;;;;4933729;29;20285;-69
2022/04/24 05:35:50;;;;;;;4.50;4.10;;;7.70;99.90;;;;;;4933392;29;20210;-69
2022/04/24 05:38:16;;;;;;;3.60;3.17;;;7.60;99.90;;;;;;4933782;29;20571;-69
2022/04/24 05:40:43;;;;;;;4.60;3.60;;;7.50;99.90;;;;;;4932964;29;20229;-69
2022/04/24 05:43:10;;;;;;;4.53;2.75;;;7.60;99.90;;;;;;4933394;29;20671;-69
2022/04/24 05:45:38;;;;;;;3.08;2.88;;;7.60;99.90;;;;;;4932618;29;20296;-69
2022/04/24 05:48:05;;;;;;;7.03;4.68;;;7.60;99.90;;;;;;4933624;29;20214;-69
2022/04/24 05:50:33;;;;;;;4.03;3.60;;;7.60;99.90;;;;;;4932649;29;20679;-69
2022/04/24 05:53:00;;;;;;;6.22;4.30;;;7.70;99.90;;;;;;4929942;29;20230;-69
2022/04/24 05:55:27;;;;;;;5.57;4.30;;;7.80;99.90;;;;;;4933315;29;20260;-69
2022/04/24 05:57:55;;;;;;;5.00;3.60;;;7.80;99.90;;;;;;4933603;29;20205;-69
2022/04/24 06:00:22;;;;;;;3.78;3.50;;;7.80;99.90;;;;;;4931955;29;20210;-69
2022/04/24 06:02:51;;;;;;;7.35;3.80;;;7.70;99.90;;;;;;4933471;29;20226;-69
2022/04/24 06:05:17;;;;;;;4.90;4.28;;;7.70;99.90;;;;;;4933190;29;20210;-69
2022/04/24 06:07:44;;;;;;;5.43;4.35;;;7.90;99.90;;;;;;4933335;29;20273;-70
2022/04/24 06:10:12;;;;;;;4.65;3.85;;;8.50;99.90;;;;;;4932529;29;20210;-69
2022/04/24 06:12:50;;;;;;;4.22;3.88;;;9.20;99.90;;;;;;4933188;29;20206;-69
2022/04/24 06:15:18;;;;;;;3.90;3.60;;;9.80;99.90;;;;;;4932341;29;20404;-69
2022/04/24 06:17:46;;;;;;;3.72;3.53;;;10.10;99.90;;;;;;4933664;29;20214;-69
2022/04/24 06:20:15;;;;;;;3.42;3.17;;;10.50;99.90;;;;;;4934089;29;20245;-69
2022/04/24 06:22:43;;;;;;;4.40;4.07;;;11.00;99.90;;;;;;4936799;29;20233;-69
2022/04/24 06:25:10;;;;;;;3.23;3.03;;;11.60;99.90;;;;;;4929829;29;20470;-68
2022/04/24 06:27:36;;;;;;;3.27;3.03;;;12.00;99.90;;;;;;4935722;29;20466;-69
2022/04/24 06:30:03;;;;;;;3.60;3.30;;;12.30;99.90;;;;;;4935199;29;20470;-69
2022/04/24 06:32:30;;;;;;;3.90;3.57;;;12.10;99.90;;;;;;4936212;29;20540;-68
2022/04/24 06:34:56;;;;;;;3.60;3.30;;;12.10;99.90;;;;;;4936285;29;20465;-69
2022/04/24 06:37:24;;;;;;;3.77;3.57;;;11.80;99.90;;;;;;4936486;29;20466;-68
2022/04/24 06:39:51;;;;;;;3.20;3.03;;;10.80;99.90;;;;;;4935772;29;20474;-69
2022/04/24 06:42:17;;;;;;;3.67;3.47;;;10.40;99.90;;;;;;4935906;29;20485;-69
2022/04/24 06:44:45;;;;;;;4.43;3.65;;;10.40;99.90;;;;;;4936091;29;20462;-68
2022/04/24 06:47:11;;;;;;;3.70;2.95;;;10.10;99.90;;;;;;4935761;29;20679;-69
2022/04/24 06:49:38;;;;;;;1.98;1.88;;;9.80;99.90;;;;;;4936264;29;20209;-68
2022/04/24 06:52:06;;;;;;;3.85;3.55;;;10.10;99.90;;;;;;4935771;29;20722;-68
2022/04/24 06:54:34;;;;;;;3.00;2.80;;;10.70;99.90;;;;;;4936196;29;20570;-69
2022/04/24 06:57:01;;;;;;;2.83;2.67;;;11.00;99.90;;;;;;4935573;29;20214;-69
2022/04/24 06:59:28;;;;;;;4.63;4.07;;;11.30;99.90;;;;;;4936398;29;20214;-69
2022/04/24 07:01:55;;;;;;;3.40;3.20;;;11.50;99.90;;;;;;4934165;29;20533;-68
2022/04/24 07:04:22;;;;;;;3.67;3.37;;;11.40;99.90;;;;;;4936115;29;20548;-68
2022/04/24 07:06:48;;;;;;;3.17;3.07;;;11.50;99.90;;;;;;4935742;29;20476;-68
2022/04/24 07:09:15;;;;;;;3.33;3.00;;;11.60;99.90;;;;;;4935833;29;20550;-68
2022/04/24 07:11:43;;;;;;;3.57;3.20;;;11.20;99.90;;;;;;4934759;29;20541;-68
2022/04/24 07:14:10;;;;;;;3.67;3.40;;;10.70;99.90;;;;;;4931530;29;20467;-68
2022/04/24 07:16:36;;;;;;;4.20;3.70;;;10.40;99.90;;;;;;4934107;29;20253;-70
2022/04/24 07:19:03;;;;;;;2.33;2.33;;;10.20;99.90;;;;;;4935748;29;20214;-69
2022/04/24 07:21:30;;;;;;;3.25;2.95;;;10.80;99.90;;;;;;4934883;29;20226;-68
2022/04/24 07:23:57;;;;;;;2.80;2.70;;;11.50;99.90;;;;;;4935265;29;20308;-69
2022/04/24 07:26:23;;;;;;;3.87;3.50;;;11.60;99.90;;;;;;4935454;29;20884;-69
2022/04/24 07:28:51;;;;;;;3.10;2.90;;;11.70;99.90;;;;;;4935454;29;20466;-68
2022/04/24 07:31:19;;;;;;;3.97;3.53;;;12.10;99.90;;;;;;4933175;29;20533;-69
2022/04/24 07:33:46;;;;;;;2.90;2.80;;;12.20;99.90;;;;;;4935444;29;20465;-69
2022/04/24 07:36:13;;;;;;;3.23;2.40;;;12.20;99.90;;;;;;4935684;29;20470;-69
2022/04/24 07:38:40;;;;;;;3.93;3.47;;;12.20;99.90;;;;;;4935143;29;20517;-68
2022/04/24 07:41:06;;;;;;;3.50;3.20;;;11.80;99.90;;;;;;4934675;29;20572;-69
2022/04/24 07:43:33;;;;;;;5.73;3.43;;;11.30;99.90;;;;;;4935162;29;20570;-68
2022/04/24 07:46:01;;;;;;;3.80;3.60;;;11.30;99.90;;;;;;4934486;29;20865;-69
2022/04/24 07:48:28;;;;;;;4.20;3.90;;;11.00;99.90;;;;;;4935172;29;20213;-69
2022/04/24 07:50:55;;;;;;;4.05;3.70;;;10.70;99.90;;;;;;4934200;29;20266;-68
2022/04/24 07:53:22;;;;;;;5.68;3.05;;;10.80;99.90;;;;;;4931128;29;20202;-69
2022/04/24 07:55:50;;;;;;;5.22;4.00;;;10.60;99.90;;;;;;4934644;29;20212;-69
2022/04/24 07:58:17;;;;;;;2.90;2.80;;;10.60;99.90;;;;;;4934736;29;20264;-69
2022/04/24 08:00:44;;;;;;;5.15;4.35;;;10.60;99.90;;;;;;4933203;29;20726;-69
2022/04/24 08:03:13;;;;;;;16.90;3.97;;;10.70;99.90;;;;;;4934399;29;20324;-70
2022/04/24 08:05:42;;;;;;;4.40;4.10;;;10.80;99.90;;;;;;4934229;29;20205;-68
2022/04/24 08:08:10;;;;;;;3.58;3.30;;;10.80;99.90;;;;;;4934762;29;20276;-69
2022/04/24 08:10:39;;;;;;;3.45;3.35;;;10.90;99.90;;;;;;4933829;29;20241;-68
2022/04/24 08:13:07;;;;;;;6.75;3.92;;;10.90;99.90;;;;;;4934255;29;20595;-68
2022/04/24 08:15:34;;;;;;;3.85;3.65;;;11.00;99.90;;;;;;4933602;29;20309;-70
2022/04/24 08:18:01;;;;;;;4.05;3.72;;;11.10;99.90;;;;;;4934286;29;20702;-69
2022/04/24 08:20:30;;;;;;;3.70;3.50;;;11.20;99.90;;;;;;4933375;29;20628;-68
2022/04/24 08:22:59;;;;;;;3.95;3.75;;;11.30;99.90;;;;;;4934250;29;20213;-68
2022/04/24 08:25:27;;;;;;;3.28;3.08;;;11.30;99.90;;;;;;4934110;29;20297;-68
2022/04/24 08:27:56;;;;;;;3.50;3.30;;;11.50;99.90;;;;;;4934199;29;20218;-69
2022/04/24 08:30:24;;;;;;;4.32;3.80;;;11.60;99.90;;;;;;4932697;29;20280;-68
2022/04/24 08:32:51;;;;;;;4.00;3.80;;;11.50;99.90;;;;;;4933848;29;20209;-69
2022/04/24 08:35:19;;;;;;;3.42;3.22;;;11.80;99.90;;;;;;4933925;29;20758;-69
2022/04/24 08:37:48;;;;;;;5.05;4.50;;;12.00;99.90;;;;;;4934148;29;20206;-69
2022/04/24 08:40:17;;;;;;;7.13;3.90;;;12.10;99.90;;;;;;4933194;29;20246;-69
2022/04/24 08:42:43;;;;;;;4.10;3.70;;;12.40;99.90;;;;;;4932898;29;20214;-71
2022/04/24 08:45:12;;;;;;;3.50;3.20;;;12.60;99.90;;;;;;4933458;29;20548;-69
2022/04/24 08:47:39;;;;;;;3.50;3.40;;;12.80;99.90;;;;;;4934529;29;20470;-69
2022/04/24 08:50:07;;;;;;;4.50;4.20;;;12.80;99.90;;;;;;4934130;29;20847;-68
2022/04/24 08:52:34;;;;;;;3.90;3.70;;;12.60;99.90;;;;;;4933771;29;20789;-69
2022/04/24 08:55:03;;;;;;;4.80;4.13;;;12.60;99.90;;;;;;4933677;29;20461;-68
2022/04/24 08:57:30;;;;;;;4.45;4.10;;;12.50;99.90;;;;;;4933966;29;20502;-69
2022/04/24 08:59:57;;;;;;;3.42;3.22;;;12.40;99.90;;;;;;4932853;29;20628;-69
2022/04/24 09:02:24;;;;;;;3.27;3.07;;;12.40;99.90;;;;;;4933392;29;20311;-69
2022/04/24 09:04:52;;;;;;;3.47;3.37;;;12.50;99.90;;;;;;4933608;29;20564;-69
2022/04/24 09:07:20;;;;;;;3.67;3.37;;;12.50;99.90;;;;;;4933920;29;20501;-68
2022/04/24 09:09:48;;;;;;;3.83;3.53;;;12.50;99.90;;;;;;4933430;29;20469;-68
2022/04/24 09:12:18;;;;;;;5.43;4.10;;;12.40;99.90;;;;;;4933655;29;20533;-68
2022/04/24 09:14:48;;;;;;;3.20;3.08;;;12.30;99.90;;;;;;4928425;29;20202;-67
2022/04/24 09:17:19;;;;;;;4.15;3.80;;;12.30;99.90;;;;;;4933211;29;20198;-68
2022/04/24 09:19:46;;;;;;;3.63;3.43;;;12.30;99.90;;;;;;4933090;29;20245;-68
2022/04/24 09:22:12;;;;;;;4.37;4.07;;;12.40;99.90;;;;;;4933244;29;21059;-68
2022/04/24 09:24:41;;;;;;;3.28;3.03;;;12.40;99.90;;;;;;4933846;29;20889;-68
2022/04/24 09:27:09;;;;;;;3.35;3.15;;;12.50;99.90;;;;;;4933292;29;20579;-69
2022/04/24 09:29:39;;;;;;;3.67;3.37;;;12.50;99.90;;;;;;4932852;29;20668;-68
2022/04/24 09:32:11;;;;;;;4.40;4.00;;;12.50;99.90;;;;;;4932142;29;20485;-68
2022/04/24 09:34:38;;;;;;;4.20;3.80;;;12.60;99.90;;;;;;4933663;29;20292;-68
2022/04/24 09:37:08;;;;;;;4.20;3.90;;;12.60;99.90;;;;;;4933287;29;20499;-69
2022/04/24 09:39:36;;;;;;;3.78;3.55;;;12.60;99.90;;;;;;4932955;29;20540;-68
2022/04/24 09:42:08;;;;;;;4.00;3.80;;;12.80;99.90;;;;;;4933328;29;20289;-68
2022/04/24 09:44:41;;;;;;;5.30;4.27;;;12.80;99.90;;;;;;4933554;29;20505;-69
2022/04/24 09:47:09;;;;;;;4.00;3.70;;;12.90;99.90;;;;;;4932783;29;20493;-69
2022/04/24 09:49:37;;;;;;;4.00;3.60;;;13.00;99.90;;;;;;4932831;29;20480;-68
2022/04/24 09:52:10;;;;;;;3.30;3.10;;;13.20;99.90;;;;;;4931068;29;20485;-69
2022/04/24 09:54:38;;;;;;;4.30;3.93;;;13.30;99.90;;;;;;4933358;29;20544;-69
2022/04/24 09:57:07;;;;;;;3.43;3.23;;;13.40;99.90;;;;;;4936928;29;20553;-68
2022/04/24 09:59:35;;;;;;;4.33;4.03;;;13.40;99.90;;;;;;4936676;29;20821;-68
2022/04/24 10:02:04;;;;;;;4.07;3.87;;;13.40;99.90;;;;;;4935704;29;20576;-68
2022/04/24 10:04:34;;;;;;;5.73;4.03;;;13.50;99.90;;;;;;4936522;29;20804;-68
2022/04/24 10:07:01;;;;;;;4.97;3.70;;;13.80;99.90;;;;;;4936607;29;20472;-71
2022/04/24 10:09:31;;;;;;;3.67;3.47;;;14.00;99.90;;;;;;4936807;29;20864;-69
2022/04/24 10:12:03;;;;;;;3.57;3.40;;;14.20;99.90;;;;;;4936384;29;20489;-70
2022/04/24 10:14:31;;;;;;;3.30;3.10;;;14.20;99.90;;;;;;4957246;23;20563;-69
2022/04/24 10:17:26;;;;;;;5.20;3.60;;;14.30;99.90;;;;;;4955231;28;20519;-67
2022/04/24 10:20:26;;;;;;;3.80;3.60;;;14.10;99.90;;;;;;4955512;28;20974;-67
2022/04/24 10:22:55;;;;;;;3.93;3.63;;;13.90;99.90;;;;;;4931786;28;20516;-67
2022/04/24 10:25:30;;;;;;;3.33;2.73;;;13.90;99.90;;;;;;4956261;28;20496;-68
2022/04/24 10:27:57;;;;;;;4.03;3.80;;;13.80;99.90;;;;;;4956279;28;20844;-69
2022/04/24 10:30:26;;;;;;;3.53;3.37;;;13.80;99.90;;;;;;4954486;28;20468;-68
2022/04/24 10:33:15;;;;;;;3.53;3.33;;;13.80;99.90;;;;;;4956043;28;20465;-68
2022/04/24 10:35:49;;;;;;;3.80;3.60;;;13.90;99.90;;;;;;4955659;28;20503;-68
2022/04/24 10:38:17;;;;;;;4.03;3.83;;;13.90;99.90;;;;;;4956834;28;20507;-69
2022/04/24 10:40:56;;;;;;;3.50;3.40;;;13.80;99.90;;;;;;4956248;28;20468;-69
2022/04/24 10:43:23;;;;;;;4.20;3.63;;;13.70;99.90;;;;;;4956291;28;20468;-68
2022/04/24 10:45:50;;;;;;;4.40;4.13;;;13.70;99.90;;;;;;4955331;28;20539;-68
2022/04/24 10:48:19;;;;;;;4.50;4.10;;;13.70;99.90;;;;;;4955358;29;20520;-68
2022/04/24 10:50:47;;;;;;;4.33;3.93;;;13.50;99.90;;;;;;4954664;29;20547;-67
2022/04/24 10:53:14;;;;;;;5.07;4.30;;;13.40;99.90;;;;;;4955080;29;20469;-68
2022/04/24 10:55:42;;;;;;;4.70;4.33;;;13.40;99.90;;;;;;4954928;28;20480;-67
2022/04/24 10:58:09;;;;;;;4.57;4.30;;;13.40;99.90;;;;;;4955043;29;20474;-67
2022/04/24 11:00:38;;;;;;;5.00;4.50;;;13.50;99.90;;;;;;4953513;28;20929;-67
2022/04/24 11:03:11;;;;;;;4.33;4.13;;;13.60;99.90;;;;;;4954798;29;20563;-67
2022/04/24 11:05:41;;;;;;;4.30;4.10;;;13.50;99.90;;;;;;4954422;28;20519;-68
2022/04/24 11:08:09;;;;;;;4.43;4.13;;;13.50;99.90;;;;;;4955000;28;20759;-67
2022/04/24 11:10:40;;;;;;;5.07;4.77;;;13.50;99.90;;;;;;4954012;28;20527;-67
2022/04/24 11:13:10;;;;;;;5.60;4.27;;;13.60;99.90;;;;;;4954804;29;20464;-68
2022/04/24 11:15:42;;;;;;;4.37;4.20;;;13.60;99.90;;;;;;4948959;28;20480;-67
2022/04/24 11:18:17;;;;;;;4.40;4.10;;;13.50;99.90;;;;;;4955427;29;20460;-68
2022/04/24 11:20:53;;;;;;;4.33;4.07;;;13.40;99.90;;;;;;4954009;29;20476;-68
2022/04/24 11:23:22;;;;;;;4.90;4.60;;;13.40;99.90;;;;;;4954646;28;20468;-68
2022/04/24 11:25:54;;;;;;;4.90;4.60;;;13.50;99.90;;;;;;4953979;28;20477;-68
2022/04/24 11:28:20;;;;;;;4.23;4.03;;;13.40;99.90;;;;;;4954689;29;20472;-68
2022/04/24 11:30:48;;;;;;;4.97;4.67;;;13.30;99.90;;;;;;4952972;28;20464;-68
2022/04/24 11:33:14;;;;;;;4.50;4.30;;;13.40;99.90;;;;;;4954194;29;20564;-68
2022/04/24 11:35:41;;;;;;;5.40;4.97;;;13.40;99.90;;;;;;4953904;28;20492;-68
2022/04/24 11:38:13;;;;;;;5.70;4.80;;;13.50;99.90;;;;;;4953914;28;20516;-68
2022/04/24 11:40:46;;;;;;;5.70;5.23;;;13.60;99.90;;;;;;4953706;29;20576;-68
2022/04/24 11:43:15;;;;;;;7.73;4.50;;;13.80;99.90;;;;;;4954375;28;20469;-68
2022/04/24 11:51:14;;;;;;;4.90;4.50;;;14.00;99.90;;;;;;4953086;29;20452;-68
2022/04/24 11:53:43;;;;;;;4.63;4.13;;;14.10;99.90;;;;;;4950239;28;20472;-67
2022/04/24 11:56:11;;;;;;;4.33;4.03;;;14.30;99.90;;;;;;4954141;29;20543;-67
2022/04/24 11:58:39;;;;;;;4.83;4.37;;;14.60;99.90;;;;;;4956932;28;20465;-67
2022/04/24 12:01:08;;;;;;;5.30;4.10;;;14.70;99.90;;;;;;4954189;29;20469;-67
2022/04/24 12:03:36;;;;;;;3.87;3.57;;;14.50;99.90;;;;;;4953486;28;20507;-67
2022/04/24 12:06:05;;;;;;;5.03;4.73;;;14.60;99.90;;;;;;4953979;29;20874;-67
2022/04/24 12:08:46;;;;;;;5.00;4.60;;;14.50;99.90;;;;;;4953755;28;20469;-67
2022/04/24 12:11:25;;;;;;;5.03;4.63;;;14.40;99.90;;;;;;4952968;28;20898;-68
2022/04/24 12:14:03;;;;;;;4.37;4.00;;;14.50;99.90;;;;;;4953390;28;20469;-69
2022/04/24 12:16:30;;;;;;;4.97;4.67;;;14.50;99.90;;;;;;4952544;29;20469;-68
2022/04/24 12:18:58;;;;;;;4.27;4.10;;;14.50;99.90;;;;;;4952749;28;20516;-66
2022/04/24 12:21:25;;;;;;;4.60;4.20;;;14.70;99.90;;;;;;4952629;29;20468;-67
2022/04/24 12:23:54;;;;;;;4.63;4.33;;;14.90;99.90;;;;;;4953395;28;20464;-67
2022/04/24 12:26:21;;;;;;;4.00;3.80;;;14.90;99.90;;;;;;4953175;29;20465;-68
2022/04/24 12:28:49;;;;;;;4.17;3.90;;;14.80;99.90;;;;;;4953327;29;20468;-67
2022/04/24 12:31:23;;;;;;;5.63;5.23;;;14.60;99.90;;;;;;4952042;29;20468;-67
2022/04/24 12:33:52;;;;;;;4.30;4.00;;;14.60;99.90;;;;;;4952972;28;20526;-66
2022/04/24 12:36:19;;;;;;;5.07;4.77;;;14.60;99.90;;;;;;4952898;28;20991;-67
2022/04/24 12:38:57;;;;;;;4.47;4.27;;;14.50;99.90;;;;;;4952975;29;20472;-67
2022/04/24 12:41:26;;;;;;;4.00;3.60;;;14.60;99.90;;;;;;4951255;29;20948;-68
2022/04/24 12:43:54;;;;;;;4.03;3.77;;;14.60;99.90;;;;;;4952998;28;20460;-68
2022/04/24 12:46:21;;;;;;;5.13;4.60;;;14.70;99.90;;;;;;4952149;28;20465;-68
2022/04/24 12:48:49;;;;;;;5.20;4.30;;;14.70;99.90;;;;;;4952917;28;20574;-68
2022/04/24 12:51:17;;;;;;;4.60;4.20;;;14.80;99.90;;;;;;4952093;29;20910;-69
2022/04/24 12:53:44;;;;;;;4.47;4.23;;;14.80;99.90;;;;;;4952844;28;20469;-67
2022/04/24 12:56:13;;;;;;;3.63;3.37;;;14.90;99.90;;;;;;4952692;28;20492;-68
2022/04/24 12:58:40;;;;;;;3.83;3.63;;;15.10;99.90;;;;;;4952581;29;21031;-67
2022/04/24 13:01:08;;;;;;;3.97;3.30;;;15.20;99.90;;;;;;4951253;28;20464;-67
2022/04/24 13:03:34;;;;;;;3.70;3.30;;;15.20;99.90;;;;;;4952995;29;20461;-67
2022/04/24 13:06:01;;;;;;;4.00;3.70;;;15.30;99.90;;;;;;4952475;28;20512;-67
2022/04/24 13:08:28;;;;;;;4.57;4.33;;;15.30;99.90;;;;;;4952756;28;20461;-67
2022/04/24 13:10:55;;;;;;;4.03;3.87;;;15.20;99.90;;;;;;4952067;28;20465;-67
2022/04/24 13:13:23;;;;;;;3.20;3.10;;;15.30;99.90;;;;;;4952690;29;20528;-67
2022/04/24 13:18:07;;;;;;;4.83;3.60;;;15.40;99.90;;;;;;4946369;28;20489;-68
2022/04/24 13:18:37;;;;;;;3.67;3.47;;;15.50;99.90;;;;;;4952021;29;20774;-67
2022/04/24 13:21:04;;;;;;;4.43;4.20;;;15.30;99.90;;;;;;4951642;28;20964;-68
2022/04/24 13:23:31;;;;;;;4.00;3.90;;;15.30;99.90;;;;;;4952198;29;20978;-69
2022/04/24 13:25:59;;;;;;;4.77;4.30;;;15.20;99.90;;;;;;4952337;28;20484;-67
2022/04/24 13:28:28;;;;;;;4.13;3.70;;;15.30;99.90;;;;;;4952500;28;20908;-69
2022/04/24 13:30:54;;;;;;;3.73;3.53;;;15.40;99.90;;;;;;4954133;29;20563;-68
2022/04/24 13:33:21;;;;;;;5.10;4.27;;;15.50;99.90;;;;;;4956906;28;20496;-68
2022/04/24 13:35:48;;;;;;;4.60;4.40;;;15.70;99.90;;;;;;4956136;28;20548;-67
2022/04/24 13:38:20;;;;;;;4.50;4.20;;;15.60;99.90;;;;;;4956379;29;20503;-68
2022/04/24 13:40:47;;;;;;;5.40;4.57;;;15.50;99.90;;;;;;4955791;29;20473;-67
2022/04/24 13:43:14;;;;;;;6.93;4.33;;;15.30;99.90;;;;;;4956604;29;20516;-68
2022/04/24 13:45:43;;;;;;;4.63;4.23;;;15.10;99.90;;;;;;4955603;28;20480;-70
2022/04/24 13:48:11;;;;;;;4.23;3.93;;;15.00;99.90;;;;;;4956820;29;20468;-67
2022/04/24 13:50:39;;;;;;;4.13;3.83;;;15.00;99.90;;;;;;4956052;29;20957;-67
2022/04/24 13:53:06;;;;;;;7.67;4.87;;;14.90;99.90;;;;;;4952937;29;20492;-68
2022/04/24 13:55:35;;;;;;;5.57;5.10;;;14.80;99.90;;;;;;4955964;28;20493;-68
2022/04/24 13:58:03;;;;;;;4.87;3.73;;;14.90;99.90;;;;;;4956118;28;20952;-68
2022/04/24 14:00:31;;;;;;;4.33;4.00;;;14.90;99.90;;;;;;4954818;28;20552;-67
2022/04/24 14:02:59;;;;;;;4.33;3.93;;;14.80;99.90;;;;;;4956361;28;20560;-68
2022/04/24 14:05:26;;;;;;;8.33;4.33;;;14.80;99.90;;;;;;4955759;28;20480;-67
2022/04/24 14:07:53;;;;;;;5.63;5.33;;;14.90;99.90;;;;;;4955943;28;20472;-68
2022/04/24 14:10:20;;;;;;;4.83;3.63;;;14.90;99.90;;;;;;4955178;28;20468;-68
2022/04/24 14:12:47;;;;;;;4.10;3.80;;;14.90;99.90;;;;;;4956117;28;20472;-68
2022/04/24 14:15:14;;;;;;;5.17;3.10;;;15.00;99.90;;;;;;4954830;28;20739;-68
2022/04/24 14:17:41;;;;;;;4.43;4.03;;;15.20;99.90;;;;;;4955938;28;20464;-68
2022/04/24 14:20:10;;;;;;;4.20;3.80;;;15.20;99.90;;;;;;4955258;28;20542;-68
2022/04/24 14:22:37;;;;;;;4.27;3.83;;;15.20;99.90;;;;;;4955685;28;20464;-68
2022/04/24 14:25:04;;;;;;;3.27;3.07;;;15.20;99.90;;;;;;4955470;28;21000;-68
2022/04/24 14:27:31;;;;;;;4.80;4.40;;;15.10;99.90;;;;;;4955598;28;20975;-68
2022/04/24 14:29:57;;;;;;;4.67;4.23;;;15.00;99.90;;;;;;4954665;28;20468;-68
2022/04/24 14:32:25;;;;;;;4.80;3.53;;;14.90;99.90;;;;;;4954751;28;20469;-68
2022/04/24 14:34:52;;;;;;;4.53;4.23;;;15.00;99.90;;;;;;4955185;28;21004;-68
2022/04/24 14:37:21;;;;;;;4.23;3.90;;;15.00;99.90;;;;;;4955078;28;20778;-68
2022/04/24 14:39:48;;;;;;;4.00;3.60;;;15.10;99.90;;;;;;4954657;28;20464;-68
2022/04/24 14:42:14;;;;;;;4.43;4.03;;;15.10;99.90;;;;;;4947389;28;20883;-68
2022/04/24 14:44:42;;;;;;;4.60;4.30;;;15.10;99.90;;;;;;4955047;28;20484;-69
2022/04/24 14:58:15;;;;;;;5.10;3.73;;;14.70;99.90;;;;;;4931053;28;20453;-68
2022/04/24 15:00:42;;;;;;;5.30;4.83;;;14.80;99.90;;;;;;4953711;28;20461;-68
2022/04/24 15:03:10;;;;;;;4.33;3.93;;;14.80;99.90;;;;;;4955053;29;20965;-68
2022/04/24 15:05:38;;;;;;;8.13;4.63;;;14.60;99.90;;;;;;4954407;28;20985;-68
2022/04/24 15:08:07;;;;;;;6.73;3.93;;;14.70;99.90;;;;;;4954794;29;20551;-68
2022/04/24 15:10:34;;;;;;;7.97;4.43;;;14.70;99.90;;;;;;4953949;29;20523;-68
2022/04/24 15:13:01;;;;;;;7.07;5.27;;;14.70;99.90;;;;;;4954514;29;20922;-68
2022/04/24 15:15:28;;;;;;;6.00;4.27;;;14.70;99.90;;;;;;4948538;28;20584;-68
2022/04/24 15:17:54;;;;;;;5.83;5.07;;;14.80;99.90;;;;;;4954486;28;20519;-68
2022/04/24 15:20:21;;;;;;;5.20;4.50;;;14.90;99.90;;;;;;4954157;29;20885;-68
2022/04/24 15:22:48;;;;;;;4.53;4.13;;;14.90;99.90;;;;;;4954316;29;20873;-69
2022/04/24 15:25:16;;;;;;;5.47;4.30;;;14.90;99.90;;;;;;4954481;28;20840;-69
2022/04/24 15:27:42;;;;;;;5.40;4.50;;;15.10;99.90;;;;;;4954416;29;20468;-68
2022/04/24 15:30:10;;;;;;;5.53;4.53;;;15.10;99.90;;;;;;4953119;29;20802;-68
2022/04/24 15:32:37;;;;;;;5.27;4.77;;;15.10;99.90;;;;;;4954270;28;20821;-68
2022/04/24 15:35:07;;;;;;;7.80;5.03;;;14.90;99.90;;;;;;4953832;28;20527;-68
2022/04/24 15:37:35;;;;;;;7.10;4.73;;;14.80;99.90;;;;;;4954125;29;20468;-68
2022/04/24 15:40:03;;;;;;;8.87;4.70;;;14.60;99.90;;;;;;4953458;28;20473;-68
2022/04/24 15:42:31;;;;;;;9.20;4.90;;;14.40;99.90;;;;;;4954096;29;20468;-68
2022/04/24 15:45:14;;;;;;;5.93;3.53;;;14.20;99.90;;;;;;4953899;28;20543;-68
2022/04/24 15:47:45;;;;;;;6.03;4.23;;;14.20;99.90;;;;;;4956009;29;20488;-69
2022/04/24 15:50:12;;;;;;;6.50;4.77;;;14.30;99.90;;;;;;4959312;29;20531;-68
2022/04/24 15:52:40;;;;;;;9.53;5.13;;;14.40;99.90;;;;;;4950974;28;20568;-69
2022/04/24 15:55:09;;;;;;;5.73;4.63;;;14.40;99.90;;;;;;4954600;28;20992;-69
2022/04/24 15:57:38;;;;;;;4.50;4.17;;;14.50;99.90;;;;;;4954436;29;20765;-68
2022/04/24 16:00:05;;;;;;;4.03;3.73;;;14.40;99.90;;;;;;4952997;28;20524;-68
2022/04/24 16:02:32;;;;;;;6.83;4.20;;;14.20;99.90;;;;;;4953926;28;20476;-68
2022/04/24 16:05:01;;;;;;;4.80;4.33;;;14.20;99.90;;;;;;4953447;28;20491;-67
2022/04/24 16:07:28;;;;;;;6.53;4.67;;;14.30;99.90;;;;;;4953537;28;20487;-68
2022/04/24 16:09:55;;;;;;;9.00;5.67;;;14.10;99.90;;;;;;4953144;29;20478;-68
2022/04/24 16:12:22;;;;;;;5.67;5.07;;;14.00;99.90;;;;;;4953452;29;20551;-67
2022/04/24 16:14:50;;;;;;;7.60;4.30;;;13.80;99.90;;;;;;4953297;28;20874;-68
2022/04/24 16:17:17;;;;;;;5.63;4.83;;;13.90;99.90;;;;;;4952925;28;20509;-68
2022/04/24 16:19:43;;;;;;;4.53;4.20;;;13.90;99.90;;;;;;4953050;28;20543;-69
2022/04/24 16:22:11;;;;;;;11.33;4.80;;;13.90;99.90;;;;;;4953349;28;20504;-68
2022/04/24 16:24:37;;;;;;;4.90;4.50;;;13.90;99.90;;;;;;4953573;28;20583;-68
2022/04/24 16:27:04;;;;;;;4.33;3.70;;;13.90;99.90;;;;;;4953432;29;20461;-68
2022/04/24 16:32:16;;;;;;;4.67;4.37;;;13.70;99.90;;;;;;4952642;29;20451;-69
2022/04/24 16:34:43;;;;;;;5.10;3.97;;;13.50;99.90;;;;;;4953033;28;20998;-69
2022/04/24 16:37:10;;;;;;;6.87;5.93;;;13.50;99.90;;;;;;4953244;28;20492;-69
2022/04/24 16:39:36;;;;;;;5.27;4.60;;;13.50;99.90;;;;;;4952888;29;20500;-69
2022/04/24 16:42:03;;;;;;;4.20;3.90;;;13.40;99.90;;;;;;4952022;29;20494;-69
2022/04/24 16:44:30;;;;;;;4.80;4.50;;;13.30;99.90;;;;;;4953606;28;20477;-69
2022/04/24 16:46:57;;;;;;;4.43;4.03;;;13.20;99.90;;;;;;4953079;28;20492;-69
2022/04/24 16:49:26;;;;;;;5.23;4.93;;;13.20;99.90;;;;;;4954047;28;20468;-69
2022/04/24 17:00:07;;;;;;;5.00;4.57;;;13.20;99.90;;;;;;4952771;29;21242;-69
2022/04/24 17:02:34;;;;;;;5.20;4.80;;;13.20;99.90;;;;;;4953693;28;20955;-70
2022/04/24 17:05:02;;;;;;;5.67;4.40;;;13.20;99.90;;;;;;4953251;28;20996;-70
2022/04/24 17:07:29;;;;;;;8.30;4.77;;;13.20;99.90;;;;;;4953866;29;20464;-70
2022/04/24 17:09:56;;;;;;;8.20;4.03;;;13.10;99.90;;;;;;4953501;28;20572;-69
2022/04/24 17:12:23;;;;;;;4.22;3.92;;;13.00;99.90;;;;;;4954151;28;20468;-69
2022/04/24 17:14:51;;;;;;;10.43;4.60;;;12.90;99.90;;;;;;4947793;28;20272;-69
2022/04/24 17:17:18;;;;;;;5.82;5.18;;;12.90;99.90;;;;;;4952244;29;20488;-69
2022/04/24 17:19:45;;;;;;;6.80;5.40;;;13.00;99.90;;;;;;4952331;28;20240;-69